Terminal Aerodrome Forecast
Issued by NWS

Home | Current Version | Previous Version | Text Only | Print | Product List | Glossary On
Versions: 1 2 3 4 5 6 7 8 9 10 11 12
123
FTUS42 TJSJ 271134
TAFIST
TAF
TIST 271134Z 2712/2812 08007KT P6SM FEW024 FEW030
     FM271300 10012KT P6SM FEW025
     FM272200 07010KT P6SM SCT025=

USA.gov is the U.S. government's official web portal to all federal, state and local government web resources and services.